createdAt,value
2019-05-21T00:00:39.460Z,30.70
2019-05-21T00:01:39.453Z,30.30
2019-05-21T00:02:39.434Z,29.90
2019-05-21T00:03:39.430Z,30.70
2019-05-21T00:04:39.434Z,31.40
2019-05-21T00:05:39.411Z,32.20
2019-05-21T00:06:39.379Z,29.50
2019-05-21T00:07:39.379Z,30.60
2019-05-21T00:08:39.370Z,30.90
2019-05-21T00:09:39.372Z,31.50
2019-05-21T00:10:39.370Z,29.90
2019-05-21T00:11:39.341Z,29.90
2019-05-21T00:12:39.328Z,30.90
2019-05-21T00:13:39.319Z,31.70
2019-05-21T00:14:39.321Z,31.40
2019-05-21T00:15:39.296Z,32.60
2019-05-21T00:16:39.310Z,32.60
2019-05-21T00:17:39.279Z,30.90
2019-05-21T00:18:39.269Z,29.90
2019-05-21T00:19:39.263Z,30.40
2019-05-21T00:20:39.239Z,30.70
2019-05-21T00:21:39.230Z,29.50
2019-05-21T00:22:39.273Z,29.00
2019-05-21T00:23:39.201Z,29.00
2019-05-21T00:24:39.257Z,28.60
2019-05-21T00:25:39.190Z,28.90
2019-05-21T00:26:39.170Z,28.10
2019-05-21T00:27:39.166Z,29.40
2019-05-21T00:28:39.216Z,29.90
2019-05-21T00:29:39.198Z,30.00
2019-05-21T00:30:39.172Z,28.80
2019-05-21T00:31:39.149Z,28.70
2019-05-21T00:32:39.121Z,29.60
2019-05-21T00:33:39.118Z,28.50
2019-05-21T00:34:43.918Z,27.80
2019-05-21T00:35:40.077Z,28.10
2019-05-21T00:36:39.081Z,28.80
2019-05-21T00:37:39.149Z,27.40
2019-05-21T00:38:39.041Z,27.90
2019-05-21T00:39:39.067Z,28.20
2019-05-21T00:40:39.018Z,28.10
2019-05-21T00:41:39.017Z,27.10
2019-05-21T00:42:39.021Z,27.10
2019-05-21T00:43:39.003Z,26.30
2019-05-21T00:44:39.021Z,27.70
2019-05-21T00:45:38.991Z,25.90
2019-05-21T00:46:38.950Z,26.90
2019-05-21T00:47:38.948Z,27.00
2019-05-21T00:48:38.938Z,26.70
2019-05-21T00:49:38.919Z,26.60
2019-05-21T00:50:38.947Z,26.60
2019-05-21T00:51:38.900Z,26.10
2019-05-21T00:52:38.902Z,27.00
2019-05-21T00:53:38.917Z,26.90
2019-05-21T00:54:38.877Z,27.00
2019-05-21T00:55:38.892Z,26.60
2019-05-21T00:56:38.857Z,26.60
2019-05-21T00:57:38.850Z,24.90
2019-05-21T00:58:38.827Z,26.90
2019-05-21T00:59:38.822Z,24.40
2019-05-21T01:00:38.831Z,25.90
2019-05-21T01:01:38.810Z,24.80
2019-05-21T01:02:38.788Z,25.70
2019-05-21T01:03:38.790Z,24.90
2019-05-21T01:04:38.775Z,24.60
2019-05-21T01:05:38.759Z,25.50
2019-05-21T01:06:38.770Z,26.10
2019-05-21T01:07:38.752Z,24.20
2019-05-21T01:08:38.731Z,25.00
2019-05-21T01:09:38.716Z,25.00
2019-05-21T01:10:38.721Z,24.80
2019-05-21T01:11:38.693Z,25.40
2019-05-21T01:12:38.676Z,25.00
2019-05-21T01:13:38.677Z,24.50
2019-05-21T01:14:38.688Z,25.10
2019-05-21T01:15:38.656Z,25.30
2019-05-21T01:16:38.651Z,25.90
2019-05-21T01:17:38.638Z,24.20
2019-05-21T01:18:38.606Z,24.80
2019-05-21T01:19:38.608Z,24.10
2019-05-21T01:20:38.616Z,25.40
2019-05-21T01:21:38.576Z,25.00
2019-05-21T01:22:38.583Z,23.80
2019-05-21T01:23:38.560Z,23.60
2019-05-21T01:24:38.558Z,23.90
2019-05-21T01:25:38.551Z,24.10
2019-05-21T01:26:38.559Z,22.80
2019-05-21T01:27:38.517Z,24.10
2019-05-21T01:28:38.513Z,24.40
2019-05-21T01:29:38.510Z,24.00
2019-05-21T01:30:38.487Z,24.50
2019-05-21T01:31:38.475Z,23.80
2019-05-21T01:32:38.478Z,23.30
2019-05-21T01:33:38.478Z,23.40
2019-05-21T01:34:38.479Z,24.50
2019-05-21T01:35:38.439Z,23.90
2019-05-21T01:36:38.458Z,23.80
2019-05-21T01:37:38.417Z,23.80
2019-05-21T01:38:38.480Z,23.80
2019-05-21T01:39:38.398Z,23.60
2019-05-21T01:40:38.375Z,22.60
2019-05-21T01:41:38.390Z,22.80
2019-05-21T01:42:38.376Z,23.50
2019-05-21T01:43:38.349Z,23.30
2019-05-21T01:44:38.337Z,23.70
2019-05-21T01:45:38.328Z,23.50
2019-05-21T01:46:38.319Z,23.90
2019-05-21T01:47:38.318Z,23.50
2019-05-21T01:48:38.298Z,23.40
2019-05-21T01:49:38.291Z,22.60
2019-05-21T01:50:38.270Z,23.00
2019-05-21T01:51:38.258Z,23.70
2019-05-21T01:52:38.262Z,23.10
2019-05-21T01:53:38.247Z,22.40
2019-05-21T01:54:38.239Z,22.30
2019-05-21T01:55:38.217Z,22.00
2019-05-21T01:56:38.205Z,21.40
2019-05-21T01:57:38.189Z,22.30
2019-05-21T01:58:38.219Z,22.80
2019-05-21T01:59:38.166Z,22.00
2019-05-21T02:00:38.180Z,21.80
2019-05-21T02:01:38.161Z,22.20
2019-05-21T02:02:38.133Z,21.40
2019-05-21T02:03:38.158Z,22.40
2019-05-21T02:04:38.123Z,22.10
2019-05-21T02:05:38.095Z,21.50
2019-05-21T02:06:38.095Z,20.40
2019-05-21T02:07:38.075Z,20.50
2019-05-21T02:08:38.075Z,21.30
2019-05-21T02:09:38.088Z,21.60
2019-05-21T02:10:38.050Z,21.20
2019-05-21T02:11:38.071Z,21.90
2019-05-21T02:12:38.039Z,21.50
2019-05-21T02:13:38.017Z,21.90
2019-05-21T02:14:38.035Z,22.20
2019-05-21T02:15:38.054Z,21.70
2019-05-21T02:16:37.988Z,20.50
2019-05-21T02:17:37.973Z,21.20
2019-05-21T02:18:37.971Z,20.80
2019-05-21T02:19:37.946Z,21.70
2019-05-21T02:20:37.957Z,23.30
2019-05-21T02:21:37.925Z,24.30
2019-05-21T02:22:37.920Z,24.90
2019-05-21T02:23:37.918Z,25.30
2019-05-21T02:24:37.887Z,26.50
2019-05-21T02:25:37.906Z,25.50
2019-05-21T02:26:37.875Z,26.60
2019-05-21T02:27:37.857Z,27.40
2019-05-21T02:28:37.859Z,26.70
2019-05-21T02:29:37.848Z,25.80
2019-05-21T02:30:37.848Z,25.40
2019-05-21T02:31:37.836Z,25.20
2019-05-21T02:32:37.816Z,26.00
2019-05-21T02:33:37.808Z,25.80
2019-05-21T02:34:37.791Z,26.60
2019-05-21T02:35:52.751Z,26.70
2019-05-21T02:36:38.790Z,26.70
2019-05-21T02:37:37.759Z,25.90
2019-05-21T02:38:37.747Z,26.50
2019-05-21T02:39:37.727Z,28.10
2019-05-21T02:40:37.739Z,28.80
2019-05-21T02:41:37.721Z,28.90
2019-05-21T02:42:37.720Z,28.60
2019-05-21T02:43:37.701Z,29.40
2019-05-21T02:44:37.681Z,30.10
2019-05-21T02:45:37.673Z,30.70
2019-05-21T02:46:37.655Z,29.50
2019-05-21T02:47:37.670Z,31.00
2019-05-21T02:48:37.639Z,31.80
2019-05-21T02:49:37.617Z,31.30
2019-05-21T02:50:37.619Z,32.10
2019-05-21T02:51:37.606Z,31.80
2019-05-21T02:52:37.626Z,32.00
2019-05-21T02:53:37.594Z,31.70
2019-05-21T02:54:41.393Z,34.40
2019-05-21T02:55:37.588Z,34.60
2019-05-21T02:56:37.562Z,34.00
2019-05-21T02:57:37.558Z,34.80
2019-05-21T02:58:37.549Z,34.70
2019-05-21T02:59:37.515Z,35.10
2019-05-21T03:00:38.803Z,35.70
2019-05-21T03:01:37.489Z,35.20
2019-05-21T03:02:37.490Z,36.20
2019-05-21T03:03:37.490Z,36.80
2019-05-21T03:04:37.466Z,38.60
2019-05-21T03:05:37.454Z,38.00
2019-05-21T03:06:37.458Z,37.70
2019-05-21T03:07:37.466Z,38.80
2019-05-21T03:08:37.416Z,40.50
2019-05-21T03:09:37.403Z,40.30
2019-05-21T03:10:37.397Z,39.70
2019-05-21T03:11:37.405Z,37.80
2019-05-21T03:12:37.385Z,39.80
2019-05-21T03:13:37.385Z,38.60
2019-05-21T03:14:37.344Z,40.30
2019-05-21T03:15:37.348Z,41.00
2019-05-21T03:16:37.342Z,40.70
2019-05-21T03:17:37.349Z,40.70
2019-05-21T03:18:37.327Z,40.60
2019-05-21T03:19:37.308Z,40.40
2019-05-21T03:20:37.288Z,41.40
2019-05-21T03:21:37.267Z,42.80
2019-05-21T03:22:37.267Z,42.90
2019-05-21T03:23:37.278Z,43.70
2019-05-21T03:24:37.295Z,42.50
2019-05-21T03:25:37.225Z,42.70
2019-05-21T03:26:37.225Z,45.40
2019-05-21T03:27:37.216Z,43.50
2019-05-21T03:28:37.210Z,44.20
2019-05-21T03:29:37.227Z,42.40
2019-05-21T03:30:37.361Z,44.80
2019-05-21T03:31:37.176Z,44.80
2019-05-21T03:32:37.167Z,45.10
2019-05-21T03:33:37.184Z,44.10
2019-05-21T03:34:37.181Z,45.90
2019-05-21T03:35:37.137Z,44.50
2019-05-21T03:36:37.470Z,45.20
2019-05-21T03:37:37.117Z,44.20
2019-05-21T03:38:37.138Z,45.70
2019-05-21T03:39:37.083Z,44.70
2019-05-21T03:40:37.085Z,44.00
2019-05-21T03:41:37.098Z,44.10
2019-05-21T03:42:37.058Z,44.30
2019-05-21T03:43:37.050Z,44.20
2019-05-21T03:44:37.025Z,43.60
2019-05-21T03:45:37.027Z,46.10
2019-05-21T03:46:37.009Z,42.70
2019-05-21T03:47:37.233Z,45.30
2019-05-21T03:48:37.007Z,44.60
2019-05-21T03:49:36.976Z,45.20
2019-05-21T03:50:36.979Z,43.10
2019-05-21T03:51:36.982Z,45.10
2019-05-21T03:52:36.988Z,44.00
2019-05-21T03:53:36.956Z,44.40
2019-05-21T03:54:36.919Z,42.70
2019-05-21T03:55:36.934Z,45.50
2019-05-21T03:56:36.923Z,42.90
2019-05-21T03:57:36.886Z,42.60
2019-05-21T03:58:36.884Z,41.30
2019-05-21T03:59:36.866Z,42.50
2019-05-21T04:00:36.872Z,42.70
2019-05-21T04:01:36.860Z,42.70
2019-05-21T04:02:36.849Z,43.50
2019-05-21T04:03:37.778Z,41.60
2019-05-21T04:04:36.813Z,43.10
2019-05-21T04:05:36.806Z,40.80
2019-05-21T04:06:51.489Z,42.20
2019-05-21T04:07:38.312Z,41.90
2019-05-21T04:08:36.767Z,41.20
2019-05-21T04:09:36.766Z,42.70
2019-05-21T04:10:36.769Z,42.90
2019-05-21T04:11:36.745Z,41.80
2019-05-21T04:12:36.753Z,38.10
2019-05-21T04:13:36.747Z,39.60
2019-05-21T04:14:36.960Z,39.50
2019-05-21T04:15:36.699Z,37.40
2019-05-21T04:16:36.685Z,38.20
2019-05-21T04:17:36.691Z,36.40
2019-05-21T04:18:36.697Z,34.30
2019-05-21T04:19:37.093Z,37.40
2019-05-21T04:20:36.646Z,36.60
2019-05-21T04:21:36.639Z,38.30
2019-05-21T04:22:37.594Z,36.90
2019-05-21T04:23:36.663Z,34.30
2019-05-21T04:24:36.630Z,34.60
2019-05-21T04:25:39.628Z,34.50
2019-05-21T04:26:36.602Z,34.00
2019-05-21T04:27:36.565Z,36.20
2019-05-21T04:28:37.076Z,36.90
2019-05-21T04:29:37.309Z,37.30
2019-05-21T04:30:37.162Z,35.30
2019-05-21T04:31:36.537Z,38.30
2019-05-21T04:32:36.516Z,38.80
2019-05-21T04:33:36.561Z,36.50
2019-05-21T04:34:36.574Z,36.40
2019-05-21T04:35:37.180Z,36.70
2019-05-21T04:36:36.486Z,34.60
2019-05-21T04:37:36.959Z,33.50
2019-05-21T04:38:37.246Z,34.20
2019-05-21T04:39:36.446Z,34.50
2019-05-21T04:40:36.982Z,35.00
2019-05-21T04:41:37.859Z,35.80
2019-05-21T04:42:36.403Z,34.60
2019-05-21T04:43:37.725Z,34.50
2019-05-21T04:44:36.384Z,34.00
2019-05-21T04:45:36.470Z,33.90
2019-05-21T04:46:36.370Z,35.90
2019-05-21T04:47:36.360Z,36.30
2019-05-21T04:48:36.343Z,35.30
2019-05-21T04:49:36.323Z,36.10
2019-05-21T04:50:36.362Z,35.70
2019-05-21T04:51:36.309Z,36.20
2019-05-21T04:52:36.318Z,34.70
2019-05-21T04:53:36.293Z,32.70
2019-05-21T04:54:36.283Z,32.10
2019-05-21T04:55:36.256Z,31.00
2019-05-21T04:56:36.265Z,30.70
2019-05-21T04:57:37.462Z,32.50
2019-05-21T04:58:36.235Z,32.20
2019-05-21T04:59:36.224Z,30.20
2019-05-21T05:00:36.246Z,29.10
2019-05-21T05:01:36.221Z,30.30
2019-05-21T05:02:36.327Z,30.20
2019-05-21T05:03:36.260Z,31.20
2019-05-21T05:04:36.176Z,32.80
2019-05-21T05:05:36.151Z,30.60
2019-05-21T05:06:36.132Z,30.90
2019-05-21T05:07:36.185Z,32.00
2019-05-21T05:08:36.153Z,30.70
2019-05-21T05:09:36.117Z,32.00
2019-05-21T05:10:36.702Z,34.00
2019-05-21T05:11:36.102Z,34.50
2019-05-21T05:12:37.195Z,32.90
2019-05-21T05:13:36.899Z,32.20
2019-05-21T05:14:36.073Z,32.80
2019-05-21T05:15:36.045Z,32.30
2019-05-21T05:16:36.045Z,31.60
2019-05-21T05:17:41.581Z,30.80
2019-05-21T05:18:36.104Z,34.40
2019-05-21T05:19:36.051Z,33.60
2019-05-21T05:20:35.982Z,32.80
2019-05-21T05:21:35.982Z,34.20
2019-05-21T05:22:36.087Z,35.80
2019-05-21T05:23:36.019Z,32.60
2019-05-21T05:24:37.228Z,34.50
2019-05-21T05:25:36.088Z,32.30
2019-05-21T05:26:35.933Z,33.40
2019-05-21T05:27:35.904Z,35.20
2019-05-21T05:28:35.906Z,33.50
2019-05-21T05:29:35.909Z,34.30
2019-05-21T05:30:36.045Z,33.90
2019-05-21T05:31:35.865Z,34.00
2019-05-21T05:32:35.855Z,36.00
2019-05-21T05:33:35.833Z,33.50
2019-05-21T05:34:35.952Z,32.40
2019-05-21T05:35:35.872Z,33.30
2019-05-21T05:36:35.833Z,32.40
2019-05-21T05:37:44.130Z,32.60
2019-05-21T05:38:36.833Z,33.20
2019-05-21T05:39:35.799Z,31.80
2019-05-21T05:40:35.789Z,32.50
2019-05-21T05:41:35.892Z,33.60
2019-05-21T05:42:35.774Z,32.80
2019-05-21T05:43:35.775Z,35.00
2019-05-21T05:44:35.715Z,32.30
2019-05-21T05:45:35.736Z,32.90
2019-05-21T05:46:35.722Z,34.20
2019-05-21T05:47:35.736Z,35.70
2019-05-21T05:48:35.682Z,34.90
2019-05-21T05:49:35.672Z,36.30
2019-05-21T05:50:35.755Z,35.20
2019-05-21T05:51:35.651Z,30.50
2019-05-21T05:52:35.718Z,31.30
2019-05-21T05:53:35.624Z,31.00
2019-05-21T05:54:35.670Z,31.50
2019-05-21T05:55:35.678Z,29.50
2019-05-21T05:56:35.682Z,30.00
2019-05-21T05:57:35.589Z,32.00
2019-05-21T05:58:35.582Z,32.20
2019-05-21T05:59:35.581Z,30.80
2019-05-21T06:00:35.580Z,30.20
2019-05-21T06:01:35.596Z,33.10
2019-05-21T06:02:35.553Z,32.10
2019-05-21T06:03:36.401Z,33.00
2019-05-21T06:04:35.515Z,33.10
2019-05-21T06:05:35.495Z,35.20
2019-05-21T06:06:35.494Z,34.60
2019-05-21T06:07:35.487Z,33.80
2019-05-21T06:08:35.501Z,35.00
2019-05-21T06:09:35.450Z,37.80
2019-05-21T06:10:39.664Z,36.90
2019-05-21T06:11:35.539Z,35.50
2019-05-21T06:12:35.428Z,36.40
2019-05-21T06:13:35.431Z,34.00
2019-05-21T06:14:35.521Z,32.60
2019-05-21T06:15:35.381Z,30.80
2019-05-21T06:16:35.405Z,29.50
2019-05-21T06:17:35.432Z,27.10
2019-05-21T06:18:35.859Z,29.30
2019-05-21T06:19:35.345Z,27.60
2019-05-21T06:20:35.335Z,27.50
2019-05-21T06:21:35.333Z,29.40
2019-05-21T06:22:35.315Z,30.30
2019-05-21T06:23:35.302Z,31.50
2019-05-21T06:24:35.595Z,29.40
2019-05-21T06:25:35.283Z,27.30
2019-05-21T06:26:35.287Z,28.70
2019-05-21T06:27:35.364Z,28.70
2019-05-21T06:28:35.245Z,27.80
2019-05-21T06:29:38.925Z,27.40
2019-05-21T06:30:35.231Z,29.60
2019-05-21T06:31:35.234Z,29.40
2019-05-21T06:32:35.285Z,29.40
2019-05-21T06:33:35.213Z,27.20
2019-05-21T06:34:35.195Z,27.90
2019-05-21T06:35:35.203Z,27.30
2019-05-21T06:36:35.151Z,28.80
2019-05-21T06:37:35.139Z,29.20
2019-05-21T06:38:35.167Z,28.50
2019-05-21T06:39:35.151Z,28.30
2019-05-21T06:40:38.358Z,29.70
2019-05-21T06:41:35.169Z,27.10
2019-05-21T06:42:35.129Z,27.60
2019-05-21T06:43:35.110Z,27.20
2019-05-21T06:44:35.811Z,27.10
2019-05-21T06:45:35.059Z,29.10
2019-05-21T06:46:35.127Z,28.30
2019-05-21T06:47:35.050Z,27.80
2019-05-21T06:48:35.032Z,28.60
2019-05-21T06:49:35.023Z,28.90
2019-05-21T06:50:37.402Z,29.90
2019-05-21T06:51:35.006Z,30.50
2019-05-21T06:52:35.004Z,29.60
2019-05-21T06:53:35.012Z,29.20
2019-05-21T06:54:34.984Z,30.70
2019-05-21T06:55:34.991Z,29.10
2019-05-21T06:56:34.959Z,29.40
2019-05-21T06:57:34.933Z,29.60
2019-05-21T06:58:34.930Z,28.30
2019-05-21T06:59:34.912Z,29.30
2019-05-21T07:00:34.942Z,30.00
2019-05-21T07:01:34.914Z,29.10
2019-05-21T07:02:34.878Z,29.90
2019-05-21T07:03:34.893Z,29.40
2019-05-21T07:04:34.869Z,27.60
2019-05-21T07:05:34.852Z,27.10
2019-05-21T07:06:34.857Z,28.40
2019-05-21T07:07:34.847Z,27.70
2019-05-21T07:08:35.406Z,28.00
2019-05-21T07:09:34.850Z,28.70
2019-05-21T07:10:34.933Z,28.90
2019-05-21T07:11:34.869Z,28.50
2019-05-21T07:12:34.770Z,28.40
2019-05-21T07:13:36.369Z,27.60
2019-05-21T07:14:34.769Z,26.40
2019-05-21T07:15:34.740Z,27.60
2019-05-21T07:16:34.784Z,27.80
2019-05-21T07:17:36.263Z,27.70
2019-05-21T07:18:35.752Z,29.10
2019-05-21T07:19:34.822Z,26.50
2019-05-21T07:20:35.508Z,27.60
2019-05-21T07:21:34.745Z,27.60
2019-05-21T07:22:34.774Z,26.70
2019-05-21T07:23:34.789Z,26.30
2019-05-21T07:24:34.687Z,28.30
2019-05-21T07:25:34.674Z,28.70
2019-05-21T07:26:34.769Z,28.50
2019-05-21T07:27:34.708Z,26.50
2019-05-21T07:28:34.762Z,26.70
2019-05-21T07:29:34.656Z,27.30
2019-05-21T07:30:34.759Z,27.10
2019-05-21T07:31:34.737Z,27.40
2019-05-21T07:32:34.690Z,28.30
2019-05-21T07:33:34.564Z,27.60
2019-05-21T07:34:34.583Z,25.10
2019-05-21T07:35:34.589Z,24.60
2019-05-21T07:36:34.510Z,27.10
2019-05-21T07:37:34.546Z,25.80
2019-05-21T07:38:50.301Z,27.30
2019-05-21T07:39:35.494Z,25.20
2019-05-21T07:40:34.509Z,27.50
2019-05-21T07:41:34.685Z,27.70
2019-05-21T07:42:34.552Z,25.90
2019-05-21T07:43:34.637Z,25.70
2019-05-21T07:44:35.831Z,25.80
2019-05-21T07:45:34.469Z,25.20
2019-05-21T07:46:34.446Z,25.50
2019-05-21T07:47:34.441Z,24.30
2019-05-21T07:48:34.554Z,24.80
2019-05-21T07:49:34.397Z,25.60
2019-05-21T07:50:34.501Z,26.70
2019-05-21T07:51:34.358Z,26.70
2019-05-21T07:52:34.351Z,27.70
2019-05-21T07:53:34.351Z,27.40
2019-05-21T07:54:34.373Z,28.00
2019-05-21T07:55:34.513Z,27.20
2019-05-21T07:56:35.444Z,25.90
2019-05-21T07:57:36.519Z,25.90
2019-05-21T07:58:34.593Z,25.00
2019-05-21T07:59:34.489Z,25.40
2019-05-21T08:00:34.434Z,26.80
2019-05-21T08:01:34.453Z,28.90
2019-05-21T08:02:34.450Z,25.80
2019-05-21T08:03:35.128Z,25.20
2019-05-21T08:04:34.355Z,25.30
2019-05-21T08:05:34.268Z,26.30
2019-05-21T08:06:35.129Z,25.80
2019-05-21T08:07:34.195Z,25.10
2019-05-21T08:08:34.981Z,26.00
2019-05-21T08:09:34.223Z,25.40
2019-05-21T08:10:34.208Z,25.20
2019-05-21T08:11:34.152Z,24.10
2019-05-21T08:12:39.410Z,25.60
2019-05-21T08:13:35.140Z,23.10
2019-05-21T08:14:34.251Z,23.20
2019-05-21T08:15:34.163Z,22.90
2019-05-21T08:16:34.124Z,24.00
2019-05-21T08:17:34.105Z,25.90
2019-05-21T08:18:34.107Z,23.40
2019-05-21T08:19:34.063Z,25.70
2019-05-21T08:20:34.138Z,23.70
2019-05-21T08:21:34.098Z,23.00
2019-05-21T08:22:34.259Z,23.40
2019-05-21T08:23:34.154Z,22.00
2019-05-21T08:24:34.123Z,22.40
2019-05-21T08:25:33.999Z,22.20
2019-05-21T08:26:33.979Z,24.80
2019-05-21T08:27:33.978Z,22.40
2019-05-21T08:28:33.949Z,23.20
2019-05-21T08:29:33.937Z,21.50
2019-05-21T08:30:33.927Z,22.40
2019-05-21T08:31:33.934Z,22.20
2019-05-21T08:32:33.971Z,21.50
2019-05-21T08:33:33.905Z,23.40
2019-05-21T08:34:33.887Z,24.00
2019-05-21T08:35:33.877Z,22.30
2019-05-21T08:36:33.857Z,21.90
2019-05-21T08:37:33.846Z,23.20
2019-05-21T08:38:33.865Z,22.20
2019-05-21T08:39:33.840Z,22.60
2019-05-21T08:40:33.852Z,23.00
2019-05-21T08:41:33.807Z,24.30
2019-05-21T08:42:33.824Z,22.60
2019-05-21T08:43:33.847Z,21.40
2019-05-21T08:44:33.896Z,22.60
2019-05-21T08:45:33.772Z,23.30
2019-05-21T08:46:33.778Z,21.10
2019-05-21T08:47:33.827Z,21.50
2019-05-21T08:48:33.738Z,22.50
2019-05-21T08:49:33.757Z,23.30
2019-05-21T08:50:33.720Z,23.40
2019-05-21T08:51:33.715Z,22.70
2019-05-21T08:52:33.759Z,22.40
2019-05-21T08:53:33.697Z,22.80
2019-05-21T08:54:33.745Z,24.00
2019-05-21T08:55:33.664Z,23.60
2019-05-21T08:56:33.697Z,23.10
2019-05-21T08:57:33.650Z,22.90
2019-05-21T08:58:33.625Z,21.90
2019-05-21T08:59:34.189Z,21.90
2019-05-21T09:00:33.617Z,21.70
2019-05-21T09:01:33.606Z,22.20
2019-05-21T09:02:33.598Z,22.50
2019-05-21T09:03:33.587Z,22.90
2019-05-21T09:04:46.025Z,21.90
2019-05-21T09:05:34.580Z,22.60
2019-05-21T09:06:33.542Z,23.10
2019-05-21T09:07:33.539Z,21.00
2019-05-21T09:08:33.543Z,20.90
2019-05-21T09:09:49.203Z,21.40
2019-05-21T09:10:34.548Z,22.50
2019-05-21T09:11:33.534Z,22.90
2019-05-21T09:12:34.321Z,21.50
2019-05-21T09:13:33.464Z,22.30
2019-05-21T09:14:33.466Z,21.80
2019-05-21T09:15:33.438Z,21.60
2019-05-21T09:16:33.498Z,22.80
2019-05-21T09:17:33.456Z,22.20
2019-05-21T09:18:33.426Z,21.90
2019-05-21T09:19:36.423Z,22.30
2019-05-21T09:20:33.418Z,21.40
2019-05-21T09:21:33.379Z,22.00
2019-05-21T09:22:33.394Z,19.70
2019-05-21T09:23:33.398Z,21.90
2019-05-21T09:24:33.386Z,21.70
2019-05-21T09:25:33.336Z,22.60
2019-05-21T09:26:33.338Z,22.70
2019-05-21T09:27:33.372Z,20.90
2019-05-21T09:28:33.413Z,19.90
2019-05-21T09:29:33.606Z,19.80
2019-05-21T09:30:33.290Z,20.90
2019-05-21T09:31:33.313Z,20.80
2019-05-21T09:32:33.285Z,19.80
2019-05-21T09:33:33.279Z,20.50
2019-05-21T09:34:47.401Z,20.10
2019-05-21T09:35:34.283Z,19.50
2019-05-21T09:36:33.248Z,20.20
2019-05-21T09:37:33.291Z,19.50
2019-05-21T09:38:33.196Z,17.30
2019-05-21T09:39:33.214Z,19.30
2019-05-21T09:40:33.182Z,17.00
2019-05-21T09:41:33.248Z,17.40
2019-05-21T09:42:33.181Z,16.30
2019-05-21T09:43:33.144Z,17.90
2019-05-21T09:44:33.156Z,16.70
2019-05-21T09:45:33.312Z,15.90
2019-05-21T09:46:33.138Z,14.20
2019-05-21T09:47:33.184Z,16.00
2019-05-21T09:48:33.096Z,15.40
2019-05-21T09:49:33.094Z,16.00
2019-05-21T09:50:33.063Z,15.30
2019-05-21T09:51:33.103Z,15.80
2019-05-21T09:52:33.073Z,15.40
2019-05-21T09:53:33.037Z,15.30
2019-05-21T09:54:33.023Z,14.10
2019-05-21T09:55:33.793Z,14.80
2019-05-21T09:56:33.006Z,15.20
2019-05-21T09:57:33.015Z,15.60
2019-05-21T09:58:33.043Z,16.70
2019-05-21T09:59:32.974Z,15.70
2019-05-21T10:00:32.969Z,15.90
2019-05-21T10:01:32.960Z,15.10
2019-05-21T10:02:33.105Z,16.00
2019-05-21T10:03:32.983Z,16.40
2019-05-21T10:04:32.952Z,16.00
2019-05-21T10:05:32.920Z,15.40
2019-05-21T10:06:32.924Z,15.80
2019-05-21T10:07:39.763Z,14.80
2019-05-21T10:08:37.123Z,15.10
2019-05-21T10:09:32.915Z,16.00
2019-05-21T10:10:33.970Z,16.80
2019-05-21T10:11:32.868Z,16.60
2019-05-21T10:12:32.969Z,15.90
2019-05-21T10:13:32.878Z,15.80
2019-05-21T10:14:34.306Z,16.60
2019-05-21T10:15:32.816Z,16.40
2019-05-21T10:16:32.824Z,16.00
2019-05-21T10:17:32.785Z,16.00
2019-05-21T10:18:32.798Z,15.50
2019-05-21T10:19:32.783Z,16.30
2019-05-21T10:20:32.780Z,16.70
2019-05-21T10:21:32.746Z,16.20
2019-05-21T10:22:32.747Z,18.00
2019-05-21T10:23:32.766Z,16.20
2019-05-21T10:24:32.705Z,17.30
2019-05-21T10:25:32.684Z,17.70
2019-05-21T10:26:32.754Z,17.90
2019-05-21T10:27:32.675Z,18.00
2019-05-21T10:28:32.816Z,17.80
2019-05-21T10:29:33.140Z,18.80
2019-05-21T10:30:32.644Z,18.40
2019-05-21T10:31:32.627Z,18.70
2019-05-21T10:32:32.622Z,19.00
2019-05-21T10:33:32.624Z,19.90
2019-05-21T10:34:32.643Z,19.70
2019-05-21T10:35:32.613Z,21.00
2019-05-21T10:36:32.574Z,20.90
2019-05-21T10:37:32.587Z,21.00
2019-05-21T10:38:32.601Z,20.70
2019-05-21T10:39:32.561Z,21.30
2019-05-21T10:40:32.627Z,22.20
2019-05-21T10:41:32.518Z,22.30
2019-05-21T10:42:32.584Z,22.60
2019-05-21T10:43:32.503Z,22.50
2019-05-21T10:44:32.495Z,23.00
2019-05-21T10:45:32.550Z,22.20
2019-05-21T10:46:32.473Z,22.30
2019-05-21T10:47:32.465Z,23.50
2019-05-21T10:48:32.486Z,24.60
2019-05-21T10:49:32.424Z,23.30
2019-05-21T10:50:32.451Z,24.50
2019-05-21T10:51:32.421Z,23.90
2019-05-21T10:52:32.444Z,24.10
2019-05-21T10:53:32.394Z,23.70
2019-05-21T10:54:32.374Z,25.10
2019-05-21T10:55:32.408Z,24.80
2019-05-21T10:56:46.776Z,23.80
2019-05-21T10:57:33.435Z,23.60
2019-05-21T10:58:32.390Z,23.50
2019-05-21T10:59:32.338Z,25.40
2019-05-21T11:00:32.311Z,23.20
2019-05-21T11:01:32.326Z,24.50
2019-05-21T11:02:32.312Z,23.40
2019-05-21T11:03:32.282Z,25.20
2019-05-21T11:04:32.317Z,23.60
2019-05-21T11:05:32.291Z,22.90
2019-05-21T11:06:32.260Z,23.90
2019-05-21T11:07:32.267Z,23.00
2019-05-21T11:08:32.240Z,24.10
2019-05-21T11:09:32.324Z,24.40
2019-05-21T11:10:32.210Z,24.20
2019-05-21T11:11:32.213Z,23.20
2019-05-21T11:12:32.219Z,23.70
2019-05-21T11:13:32.210Z,24.10
2019-05-21T11:14:32.214Z,23.40
2019-05-21T11:15:32.531Z,22.50
2019-05-21T11:16:32.144Z,23.70
2019-05-21T11:17:48.073Z,23.60
2019-05-21T11:18:33.116Z,24.10
2019-05-21T11:19:32.115Z,23.30
2019-05-21T11:20:32.103Z,23.30
2019-05-21T11:21:32.104Z,23.40
2019-05-21T11:22:32.083Z,23.60
2019-05-21T11:23:32.091Z,22.10
2019-05-21T11:24:32.057Z,22.30
2019-05-21T11:25:32.141Z,21.80
2019-05-21T11:26:32.036Z,22.70
2019-05-21T11:27:32.020Z,23.00
2019-05-21T11:28:32.037Z,22.00
2019-05-21T11:29:32.040Z,22.20
2019-05-21T11:30:32.141Z,22.10
2019-05-21T11:31:32.013Z,22.40
2019-05-21T11:32:31.973Z,22.30
2019-05-21T11:33:31.982Z,21.90
2019-05-21T11:34:31.996Z,23.50
2019-05-21T11:35:35.303Z,22.70
2019-05-21T11:36:31.966Z,21.80
2019-05-21T11:37:31.934Z,24.40
2019-05-21T11:38:39.916Z,22.70
2019-05-21T11:39:32.981Z,24.00
2019-05-21T11:40:31.875Z,23.40
2019-05-21T11:41:31.862Z,23.10
2019-05-21T11:42:31.867Z,22.20
2019-05-21T11:43:31.863Z,24.90
2019-05-21T11:44:31.854Z,24.10
2019-05-21T11:45:33.033Z,25.00
2019-05-21T11:46:31.824Z,22.80
2019-05-21T11:47:31.806Z,24.30
2019-05-21T11:48:31.812Z,23.80
2019-05-21T11:49:31.833Z,24.10
2019-05-21T11:50:31.797Z,22.90
2019-05-21T11:51:31.794Z,23.70
2019-05-21T11:52:31.769Z,24.40
2019-05-21T11:53:32.123Z,22.50
2019-05-21T11:54:31.735Z,24.00
2019-05-21T11:55:31.748Z,23.20
2019-05-21T11:56:31.717Z,23.60
2019-05-21T11:57:31.714Z,24.20
2019-05-21T11:58:31.736Z,23.10
2019-05-21T11:59:31.679Z,24.00
2019-05-21T12:00:31.691Z,24.10
2019-05-21T12:01:31.654Z,24.10
2019-05-21T12:02:31.718Z,24.30
2019-05-21T12:03:31.693Z,25.50
2019-05-21T12:04:31.621Z,26.00
2019-05-21T12:05:31.630Z,23.90
2019-05-21T12:06:31.611Z,23.80
2019-05-21T12:07:31.603Z,24.50
2019-05-21T12:08:32.382Z,24.90
2019-05-21T12:09:31.601Z,23.90
2019-05-21T12:10:32.405Z,24.70
2019-05-21T12:11:31.562Z,24.20
2019-05-21T12:12:31.542Z,26.10
2019-05-21T12:13:31.566Z,25.00
2019-05-21T12:14:34.405Z,25.10
2019-05-21T12:15:31.513Z,23.00
2019-05-21T12:16:31.549Z,25.10
2019-05-21T12:17:31.536Z,26.20
2019-05-21T12:18:31.538Z,24.10
2019-05-21T12:19:31.514Z,24.70
2019-05-21T12:20:36.570Z,24.60
2019-05-21T12:21:32.434Z,25.10
2019-05-21T12:22:31.588Z,23.60
2019-05-21T12:23:31.416Z,24.40
2019-05-21T12:24:31.459Z,23.50
2019-05-21T12:25:31.399Z,24.90
2019-05-21T12:26:31.383Z,23.80
2019-05-21T12:27:31.409Z,25.10
2019-05-21T12:28:31.385Z,24.20
2019-05-21T12:29:34.197Z,26.00
2019-05-21T12:30:31.381Z,24.40
2019-05-21T12:31:31.359Z,25.40
2019-05-21T12:32:31.335Z,25.50
2019-05-21T12:33:34.879Z,25.40
2019-05-21T12:34:31.293Z,24.40
2019-05-21T12:35:31.303Z,25.30
2019-05-21T12:36:31.326Z,25.90
2019-05-21T12:37:31.262Z,25.80
2019-05-21T12:38:31.292Z,26.30
2019-05-21T12:39:31.254Z,27.50
2019-05-21T12:40:31.238Z,25.90
2019-05-21T12:41:31.241Z,27.20
2019-05-21T12:42:31.233Z,27.50
2019-05-21T12:43:31.220Z,26.90
2019-05-21T12:44:31.233Z,26.70
2019-05-21T12:45:32.220Z,26.10
2019-05-21T12:46:31.178Z,25.40
2019-05-21T12:47:31.299Z,26.80
2019-05-21T12:48:31.157Z,26.80
2019-05-21T12:49:31.167Z,27.80
2019-05-21T12:50:31.184Z,27.00
2019-05-21T12:51:31.839Z,26.40
2019-05-21T12:52:33.747Z,26.50